This is the latest recevied weather packets stored in our database for station/object K1KOF. If no packets are shown the sender has not sent any weather packets the latest 10 day(s).
| Time | Temp. | Humidity | Pressure | Rain* | Wind** | Luminosity | Snow |
|---|---|---|---|---|---|---|---|
| 1778189728 | 25.56° C | 74% | 1018.7 hPa | 0 mm | - | 94 W/m² | - |
| 1778189425 | 25.56° C | 75% | 1018.8 hPa | 0 mm | - | 466 W/m² | - |
| 1778189121 | 25° C | 77% | 1018.6 hPa | 0 mm | - | 176 W/m² | - |
| 1778188817 | 25.56° C | 75% | 1018.5 hPa | 0 mm | - | 175 W/m² | - |
| 1778188514 | 25.56° C | 77% | 1018.8 hPa | 0 mm | - | 350 W/m² | - |
| 1778188210 | 26.67° C | 74% | 1018.7 hPa | 0 mm | - | 537 W/m² | - |
| 1778187908 | 26.67° C | 73% | 1018.5 hPa | 0 mm | - | 510 W/m² | - |
| 1778187604 | 26.67° C | 73% | 1018.8 hPa | 0 mm | - | 532 W/m² | - |
| 1778187301 | 26.67° C | 74% | 1018.6 hPa | 0 mm | - | 440 W/m² | - |
| 1778186997 | 26.11° C | 74% | 1018.6 hPa | 0 mm | - | 369 W/m² | - |
| 1778186694 | 26.11° C | 75% | 1018.9 hPa | 0 mm | - | 558 W/m² | - |
| 1778186392 | 25.56° C | 76% | 1018.8 hPa | 0 mm | - | 590 W/m² | - |
| 1778186089 | 25.56° C | 75% | 1019.1 hPa | 0 mm | - | 483 W/m² | - |
| 1778185785 | 26.11° C | 73% | 1018.9 hPa | 0 mm | - | 460 W/m² | - |
| 1778185482 | 26.11° C | 74% | 1018.9 hPa | 0 mm | - | 542 W/m² | - |
| 1778185178 | 26.67° C | 73% | 1018.6 hPa | 0 mm | - | 577 W/m² | - |
| 1778184873 | 25.56° C | 76% | 1018.8 hPa | 0 mm | - | 626 W/m² | - |
| 1778184570 | 25.56° C | 76% | 1018.9 hPa | 0 mm | - | 575 W/m² | - |
| 1778184266 | 26.11° C | 75% | 1019.1 hPa | 0 mm | - | 618 W/m² | - |
| 1778183962 | 25.56° C | 78% | 1019.2 hPa | 0 mm | - | 553 W/m² | - |
| 1778183660 | 25.56° C | 78% | 1019.3 hPa | 0 mm | - | 243 W/m² | - |
| 1778183357 | 25.56° C | 78% | 1019.5 hPa | 0 mm | - | 294 W/m² | - |
| 1778183053 | 26.67° C | 75% | 1019.3 hPa | 0 mm | - | 278 W/m² | - |
| 1778182749 | 25.56° C | 78% | 1019.6 hPa | 0 mm | - | 462 W/m² | - |
| 1778182447 | 26.11° C | 76% | 1019.3 hPa | 0 mm | - | 206 W/m² | - |
* Rain latest hour (hover to see other rain measurements)
** Current wind speed in m/s (hover to see current wind gust speed)